createdAt,value
2023-04-03T00:01:22.560Z,0.50
2023-04-03T00:03:50.096Z,0.30
2023-04-03T00:06:16.941Z,0.73
2023-04-03T00:08:43.662Z,1.08
2023-04-03T00:11:12.352Z,0.65
2023-04-03T00:13:40.382Z,2.67
2023-04-03T00:16:08.558Z,0.90
2023-04-03T00:18:35.783Z,1.35
2023-04-03T00:21:02.475Z,1.25
2023-04-03T00:23:29.501Z,0.50
2023-04-03T00:25:56.614Z,0.40
2023-04-03T00:28:23.606Z,0.88
2023-04-03T00:30:51.216Z,1.00
2023-04-03T00:33:18.112Z,1.10
2023-04-03T00:35:46.035Z,0.60
2023-04-03T00:38:12.721Z,0.30
2023-04-03T00:40:45.406Z,0.65
2023-04-03T00:43:15.859Z,0.45
2023-04-03T00:45:45.013Z,0.43
2023-04-03T00:48:19.563Z,0.77
2023-04-03T00:50:47.162Z,0.50
2023-04-03T00:53:20.304Z,1.00
2023-04-03T00:55:48.539Z,0.32
2023-04-03T00:58:18.865Z,0.30
2023-04-03T01:00:54.742Z,0.90
2023-04-03T01:03:21.487Z,0.57
2023-04-03T01:05:48.448Z,0.75
2023-04-03T01:08:16.666Z,0.73
2023-04-03T01:10:43.782Z,0.75
2023-04-03T01:13:31.087Z,0.77
2023-04-03T01:15:58.236Z,0.70
2023-04-03T01:18:27.198Z,1.25
2023-04-03T01:20:56.694Z,1.02
2023-04-03T01:23:38.157Z,0.60
2023-04-03T01:26:05.606Z,0.55
2023-04-03T01:28:35.494Z,0.30
2023-04-03T01:31:23.354Z,0.40
2023-04-03T01:33:50.386Z,0.50
2023-04-03T01:36:25.243Z,1.08
2023-04-03T01:38:53.332Z,0.93
2023-04-03T01:41:21.832Z,0.57
2023-04-03T01:43:49.876Z,2.40
2023-04-03T01:46:21.179Z,1.17
2023-04-03T01:48:48.147Z,1.27
2023-04-03T01:51:15.874Z,0.80
2023-04-03T01:53:42.481Z,0.68
2023-04-03T01:56:10.851Z,1.13
2023-04-03T01:58:37.613Z,1.52
2023-04-03T02:01:06.125Z,0.60
2023-04-03T02:03:33.782Z,0.65
2023-04-03T02:06:01.355Z,1.25
2023-04-03T02:08:27.979Z,0.40
2023-04-03T02:10:54.749Z,0.77
2023-04-03T02:13:21.454Z,1.20
2023-04-03T02:15:48.729Z,0.38
2023-04-03T02:18:15.945Z,0.40
2023-04-03T02:20:42.984Z,1.15
2023-04-03T02:23:09.862Z,0.90
2023-04-03T02:25:38.582Z,0.60
2023-04-03T02:28:06.037Z,0.80
2023-04-03T02:30:33.003Z,0.50
2023-04-03T02:32:59.670Z,1.02
2023-04-03T02:35:26.422Z,0.63
2023-04-03T02:37:53.147Z,0.90
2023-04-03T02:40:20.085Z,1.70
2023-04-03T02:42:46.792Z,1.02
2023-04-03T02:45:14.824Z,0.52
2023-04-03T02:47:41.657Z,0.43
2023-04-03T02:50:08.607Z,0.75
2023-04-03T02:52:36.396Z,0.95
2023-04-03T02:55:03.460Z,0.55
2023-04-03T02:57:30.508Z,0.47
2023-04-03T02:59:57.272Z,0.43
2023-04-03T03:02:24.396Z,0.25
2023-04-03T03:04:51.163Z,0.30
2023-04-03T03:07:19.171Z,0.80
2023-04-03T03:09:47.481Z,0.57
2023-04-03T03:12:15.700Z,1.75
2023-04-03T03:14:43.851Z,0.50
2023-04-03T03:17:10.491Z,0.85
2023-04-03T03:19:38.562Z,0.70
2023-04-03T03:22:05.290Z,0.50
2023-04-03T03:24:32.046Z,0.93
2023-04-03T03:26:58.710Z,0.30
2023-04-03T03:29:25.553Z,1.42
2023-04-03T03:31:53.517Z,0.50
2023-04-03T03:34:20.325Z,0.55
2023-04-03T03:36:48.111Z,1.00
2023-04-03T03:39:16.102Z,0.75
2023-04-03T03:41:43.914Z,1.63
2023-04-03T03:44:10.719Z,1.92
2023-04-03T03:46:37.428Z,1.08
2023-04-03T03:49:04.215Z,0.50
2023-04-03T03:51:31.032Z,1.20
2023-04-03T03:53:57.787Z,0.82
2023-04-03T03:56:24.505Z,1.20
2023-04-03T03:58:51.288Z,1.00
2023-04-03T04:01:19.430Z,0.82
2023-04-03T04:03:46.312Z,1.08
2023-04-03T04:06:13.208Z,0.65
2023-04-03T04:08:39.886Z,0.88
2023-04-03T04:11:06.831Z,0.60
2023-04-03T04:13:33.492Z,1.10
2023-04-03T04:16:00.440Z,0.95
2023-04-03T04:18:27.071Z,0.70
2023-04-03T04:20:53.674Z,1.30
2023-04-03T04:23:21.871Z,1.38
2023-04-03T04:25:49.752Z,1.42
2023-04-03T04:28:17.171Z,0.50
2023-04-03T04:30:44.046Z,0.70
2023-04-03T04:33:11.106Z,1.08
2023-04-03T04:35:39.609Z,1.63
2023-04-03T04:38:06.647Z,1.20
2023-04-03T04:40:33.350Z,1.20
2023-04-03T04:43:00.020Z,0.80
2023-04-03T04:45:26.676Z,0.98
2023-04-03T04:47:55.868Z,2.00
2023-04-03T04:50:22.484Z,1.70
2023-04-03T04:52:49.138Z,2.35
2023-04-03T04:55:17.332Z,1.40
2023-04-03T04:57:43.930Z,1.70
2023-04-03T05:00:12.264Z,1.77
2023-04-03T05:02:39.465Z,1.98
2023-04-03T05:07:39.610Z,2.33
2023-04-03T05:10:06.971Z,3.28
2023-04-03T05:12:34.751Z,3.25
2023-04-03T05:15:01.389Z,3.28
2023-04-03T05:17:28.092Z,3.45
2023-04-03T05:19:54.701Z,4.45
2023-04-03T05:22:21.561Z,3.13
2023-04-03T05:24:48.241Z,2.75
2023-04-03T05:27:14.860Z,3.63
2023-04-03T05:29:45.230Z,3.28
2023-04-03T05:32:12.323Z,2.85
2023-04-03T05:34:39.269Z,3.05
2023-04-03T05:37:06.443Z,3.08
2023-04-03T05:39:35.381Z,2.13
2023-04-03T05:42:02.046Z,2.95
2023-04-03T05:44:28.672Z,1.67
2023-04-03T05:46:55.608Z,1.63
2023-04-03T05:49:22.263Z,1.65
2023-04-03T05:51:48.966Z,1.17
2023-04-03T05:54:24.144Z,2.75
2023-04-03T05:56:51.487Z,1.70
2023-04-03T05:59:19.295Z,2.35
2023-04-03T06:01:46.778Z,2.35
2023-04-03T06:04:14.660Z,2.35
2023-04-03T06:06:58.283Z,1.63
2023-04-03T06:09:29.076Z,1.63
2023-04-03T06:11:55.825Z,1.27
2023-04-03T06:14:23.815Z,1.60
2023-04-03T06:16:50.626Z,0.82
2023-04-03T06:19:17.373Z,1.30
2023-04-03T06:21:44.040Z,0.95
2023-04-03T06:24:13.475Z,1.42
2023-04-03T06:26:40.198Z,1.50
2023-04-03T06:29:06.825Z,1.83
2023-04-03T06:31:33.919Z,1.20
2023-04-03T06:34:00.676Z,1.27
2023-04-03T06:36:27.338Z,1.45
2023-04-03T06:38:53.933Z,1.73
2023-04-03T06:41:22.342Z,1.35
2023-04-03T06:43:50.230Z,1.10
2023-04-03T06:46:19.709Z,1.13
2023-04-03T06:48:48.209Z,1.55
2023-04-03T06:51:20.934Z,1.10
2023-04-03T06:53:49.086Z,1.45
2023-04-03T06:56:16.565Z,1.15
2023-04-03T06:58:44.379Z,1.13
2023-04-03T07:01:13.120Z,1.08
2023-04-03T07:03:41.097Z,0.95
2023-04-03T07:06:10.756Z,1.42
2023-04-03T07:08:37.402Z,1.27
2023-04-03T07:11:07.078Z,1.52
2023-04-03T07:13:34.216Z,1.90
2023-04-03T07:16:02.769Z,1.70
2023-04-03T07:18:29.478Z,1.02
2023-04-03T07:20:58.118Z,1.02
2023-04-03T07:23:25.524Z,1.30
2023-04-03T07:25:54.333Z,1.00
2023-04-03T07:28:23.610Z,1.92
2023-04-03T07:31:00.057Z,1.40
2023-04-03T07:33:27.227Z,1.40
2023-04-03T07:35:54.019Z,1.48
2023-04-03T07:38:20.849Z,1.25
2023-04-03T07:40:52.153Z,1.30
2023-04-03T07:43:19.199Z,1.33
2023-04-03T07:45:46.255Z,1.10
2023-04-03T07:48:14.543Z,1.30
2023-04-03T07:50:41.971Z,1.35
2023-04-03T07:53:10.241Z,1.25
2023-04-03T07:55:43.784Z,0.98
2023-04-03T07:58:17.862Z,0.90
2023-04-03T08:00:46.542Z,1.25
2023-04-03T08:03:13.923Z,1.00
2023-04-03T08:05:46.963Z,0.88
2023-04-03T08:08:16.892Z,0.88
2023-04-03T08:10:44.147Z,0.80
2023-04-03T08:13:11.272Z,1.10
2023-04-03T08:15:38.264Z,1.20
2023-04-03T08:18:05.979Z,0.93
2023-04-03T08:20:32.605Z,0.85
2023-04-03T08:22:59.261Z,0.98
2023-04-03T08:25:27.296Z,1.20
2023-04-03T08:27:55.225Z,0.93
2023-04-03T08:30:21.877Z,0.82
2023-04-03T08:32:48.853Z,1.27
2023-04-03T08:35:16.091Z,1.10
2023-04-03T08:37:43.298Z,1.15
2023-04-03T08:40:17.182Z,1.10
2023-04-03T08:42:48.291Z,1.17
2023-04-03T08:45:19.823Z,1.15
2023-04-03T08:48:06.195Z,1.45
2023-04-03T08:50:40.526Z,1.23
2023-04-03T08:53:33.657Z,0.82
2023-04-03T08:56:07.771Z,1.00
2023-04-03T08:58:45.810Z,0.93
2023-04-03T09:01:26.191Z,0.85
2023-04-03T09:03:54.344Z,1.00
2023-04-03T09:06:33.692Z,0.98
2023-04-03T09:09:43.161Z,1.05
2023-04-03T09:12:34.266Z,1.02
2023-04-03T09:15:35.289Z,1.13
2023-04-03T09:18:20.045Z,0.80
2023-04-03T09:20:52.610Z,1.17
2023-04-03T09:23:23.445Z,0.88
2023-04-03T09:25:52.199Z,1.02
2023-04-03T09:28:18.795Z,1.38
2023-04-03T09:30:46.580Z,1.02
2023-04-03T09:33:14.676Z,0.90
2023-04-03T09:35:48.327Z,1.00
2023-04-03T09:38:23.287Z,2.00
2023-04-03T09:41:04.608Z,1.00
2023-04-03T09:43:34.704Z,0.80
2023-04-03T09:46:21.385Z,1.08
2023-04-03T09:49:08.029Z,0.90
2023-04-03T09:51:37.452Z,1.00
2023-04-03T09:54:27.387Z,0.68
2023-04-03T09:56:57.335Z,0.73
2023-04-03T09:59:24.206Z,0.73
2023-04-03T10:02:00.911Z,1.13
2023-04-03T10:04:39.450Z,0.90
2023-04-03T10:07:34.809Z,0.65
2023-04-03T10:10:26.904Z,0.82
2023-04-03T10:13:20.275Z,1.45
2023-04-03T10:16:10.011Z,0.90
2023-04-03T10:18:48.986Z,0.93
2023-04-03T10:21:27.467Z,0.85
2023-04-03T10:24:21.997Z,0.80
2023-04-03T10:27:14.673Z,1.02
2023-04-03T10:29:53.450Z,1.10
2023-04-03T10:32:39.491Z,0.63
2023-04-03T10:35:35.701Z,1.25
2023-04-03T10:38:32.449Z,1.35
2023-04-03T10:41:09.042Z,0.65
2023-04-03T10:43:46.122Z,0.80
2023-04-03T10:46:17.663Z,1.23
2023-04-03T10:49:14.529Z,0.68
2023-04-03T10:52:07.423Z,1.05
2023-04-03T10:54:41.946Z,0.60
2023-04-03T10:59:56.441Z,0.82
2023-04-03T11:02:26.889Z,1.00
2023-04-03T11:05:02.260Z,0.80
2023-04-03T11:07:34.529Z,0.70
2023-04-03T11:10:20.435Z,0.80
2023-04-03T11:12:59.365Z,1.17
2023-04-03T11:15:33.648Z,0.65
2023-04-03T11:18:18.125Z,1.15
2023-04-03T11:20:55.052Z,1.00
2023-04-03T11:23:46.017Z,1.10
2023-04-03T11:26:27.932Z,0.75
2023-04-03T11:29:01.863Z,1.00
2023-04-03T11:31:41.384Z,0.90
2023-04-03T11:34:28.939Z,0.80
2023-04-03T11:37:01.905Z,0.70
2023-04-03T11:39:35.539Z,1.00
2023-04-03T11:42:19.119Z,0.80
2023-04-03T11:44:47.262Z,0.60
2023-04-03T11:48:20.888Z,1.00
2023-04-03T11:50:54.015Z,0.93
2023-04-03T11:53:33.665Z,1.00
2023-04-03T11:56:24.440Z,0.88
2023-04-03T11:59:05.867Z,0.60
2023-04-03T12:02:29.904Z,0.80
2023-04-03T12:05:29.414Z,1.00
2023-04-03T12:08:33.429Z,1.10
2023-04-03T12:11:12.384Z,0.90
2023-04-03T12:13:49.933Z,1.30
2023-04-03T12:19:15.991Z,1.40
2023-04-03T12:22:04.929Z,1.25
2023-04-03T12:24:34.229Z,0.80
2023-04-03T12:27:01.155Z,0.68
2023-04-03T12:29:30.743Z,1.17
2023-04-03T12:32:18.281Z,0.80
2023-04-03T12:35:06.393Z,0.68
2023-04-03T12:38:05.183Z,0.68
2023-04-03T12:40:45.278Z,1.30
2023-04-03T12:43:15.962Z,1.13
2023-04-03T12:45:54.755Z,0.93
2023-04-03T12:48:27.344Z,1.20
2023-04-03T12:50:56.311Z,1.20
2023-04-03T12:53:27.272Z,1.38
2023-04-03T12:56:32.148Z,0.88
2023-04-03T12:59:21.286Z,0.73
2023-04-03T13:02:01.992Z,0.95
2023-04-03T13:04:31.397Z,1.05
2023-04-03T13:06:58.973Z,1.20
2023-04-03T13:09:31.232Z,0.77
2023-04-03T13:12:01.815Z,1.08
2023-04-03T13:14:31.434Z,1.10
2023-04-03T13:17:17.191Z,0.70
2023-04-03T13:19:46.942Z,1.10
2023-04-03T13:22:25.494Z,0.70
2023-04-03T13:24:54.526Z,0.93
2023-04-03T13:27:22.138Z,1.02
2023-04-03T13:29:55.657Z,0.90
2023-04-03T13:32:27.187Z,0.80
2023-04-03T13:34:54.065Z,0.88
2023-04-03T13:37:24.735Z,0.60
2023-04-03T13:40:17.756Z,0.73
2023-04-03T13:42:44.492Z,0.70
2023-04-03T13:45:20.923Z,1.00
2023-04-03T13:47:51.358Z,0.77
2023-04-03T13:50:22.481Z,1.42
2023-04-03T13:53:14.704Z,0.70
2023-04-03T13:55:57.667Z,0.70
2023-04-03T13:58:32.415Z,1.15
2023-04-03T14:01:09.002Z,0.70
2023-04-03T14:03:54.370Z,0.77
2023-04-03T14:06:21.643Z,0.95
2023-04-03T14:08:50.078Z,0.90
2023-04-03T14:11:21.884Z,1.05
2023-04-03T14:13:48.990Z,0.80
2023-04-03T14:16:25.597Z,0.80
2023-04-03T14:18:54.623Z,0.57
2023-04-03T14:21:22.544Z,0.80
2023-04-03T14:23:51.085Z,0.90
2023-04-03T14:26:24.425Z,0.70
2023-04-03T14:28:55.648Z,0.90
2023-04-03T14:31:24.631Z,0.70
2023-04-03T14:33:52.907Z,0.82
2023-04-03T14:36:26.361Z,0.57
2023-04-03T14:38:54.429Z,0.88
2023-04-03T14:41:24.420Z,0.98
2023-04-03T14:43:52.049Z,0.77
2023-04-03T14:46:43.429Z,1.05
2023-04-03T14:49:23.131Z,0.82
2023-04-03T14:51:49.881Z,0.90
2023-04-03T14:54:22.551Z,1.00
2023-04-03T14:56:50.541Z,1.48
2023-04-03T14:59:18.605Z,0.75
2023-04-03T15:01:45.352Z,1.00
2023-04-03T15:04:20.883Z,1.08
2023-04-03T15:06:49.429Z,1.00
2023-04-03T15:09:25.417Z,1.02
2023-04-03T15:11:53.757Z,0.93
2023-04-03T15:14:35.288Z,1.23
2023-04-03T15:17:09.853Z,1.00
2023-04-03T15:19:39.937Z,1.17
2023-04-03T15:22:08.455Z,1.02
2023-04-03T15:24:35.117Z,0.95
2023-04-03T15:27:02.473Z,1.05
2023-04-03T15:29:29.214Z,0.90
2023-04-03T15:31:56.080Z,0.90
2023-04-03T15:34:23.221Z,0.73
2023-04-03T15:36:53.789Z,0.88
2023-04-03T15:39:21.570Z,0.43
2023-04-03T15:41:49.693Z,0.68
2023-04-03T15:44:18.756Z,0.90
2023-04-03T15:46:47.161Z,0.90
2023-04-03T15:49:14.114Z,0.70
2023-04-03T15:51:40.823Z,0.77
2023-04-03T15:54:07.687Z,0.95
2023-04-03T15:56:34.360Z,0.77
2023-04-03T15:59:01.018Z,0.88
2023-04-03T16:01:28.482Z,0.82
2023-04-03T16:03:57.614Z,0.57
2023-04-03T16:06:25.952Z,0.80
2023-04-03T16:08:52.775Z,0.70
2023-04-03T16:11:19.445Z,0.90
2023-04-03T16:13:46.095Z,0.63
2023-04-03T16:16:12.785Z,0.80
2023-04-03T16:18:39.572Z,0.52
2023-04-03T16:21:09.153Z,0.73
2023-04-03T16:23:36.378Z,0.77
2023-04-03T16:26:04.172Z,0.60
2023-04-03T16:28:30.892Z,1.02
2023-04-03T16:30:59.484Z,1.30
2023-04-03T16:33:26.228Z,0.75
2023-04-03T16:35:53.292Z,0.60
2023-04-03T16:38:20.725Z,0.80
2023-04-03T16:40:47.637Z,0.75
2023-04-03T16:43:14.308Z,0.75
2023-04-03T16:45:41.550Z,0.70
2023-04-03T16:48:10.243Z,0.77
2023-04-03T16:50:38.830Z,0.80
2023-04-03T16:53:09.352Z,0.80
2023-04-03T16:55:37.043Z,1.20
2023-04-03T16:58:03.632Z,0.90
2023-04-03T17:00:35.028Z,0.70
2023-04-03T17:03:02.370Z,0.70
2023-04-03T17:05:29.112Z,1.00
2023-04-03T17:07:56.450Z,0.80
2023-04-03T17:10:23.342Z,2.80
2023-04-03T17:12:50.112Z,1.30
2023-04-03T17:15:16.825Z,1.10
2023-04-03T17:17:43.670Z,0.88
2023-04-03T17:20:11.297Z,5.28
2023-04-03T17:22:37.984Z,1.35
2023-04-03T17:25:05.904Z,0.80
2023-04-03T17:27:32.795Z,2.35
2023-04-03T17:29:59.822Z,0.65
2023-04-03T17:32:26.715Z,0.80
2023-04-03T17:34:53.620Z,1.58
2023-04-03T17:37:20.316Z,0.65
2023-04-03T17:39:47.114Z,0.93
2023-04-03T17:42:15.492Z,0.55
2023-04-03T17:44:42.726Z,0.68
2023-04-03T17:47:10.804Z,0.90
2023-04-03T17:49:37.489Z,2.05
2023-04-03T17:52:05.583Z,0.93
2023-04-03T17:54:32.281Z,1.27
2023-04-03T17:56:58.907Z,0.90
2023-04-03T17:59:27.718Z,1.30
2023-04-03T18:01:55.879Z,1.70
2023-04-03T18:04:23.401Z,1.50
2023-04-03T18:06:52.018Z,1.40
2023-04-03T18:09:22.558Z,0.90
2023-04-03T18:11:50.062Z,0.90
2023-04-03T18:14:23.232Z,0.93
2023-04-03T18:16:50.315Z,1.77
2023-04-03T18:19:23.288Z,0.88
2023-04-03T18:22:00.978Z,0.80
2023-04-03T18:24:28.702Z,2.03
2023-04-03T18:27:01.957Z,2.72
2023-04-03T18:29:33.888Z,2.00
2023-04-03T18:32:05.526Z,2.10
2023-04-03T18:34:32.812Z,1.83
2023-04-03T18:37:00.197Z,1.95
2023-04-03T18:39:27.153Z,1.77
2023-04-03T18:41:54.400Z,1.13
2023-04-03T18:44:24.834Z,1.35
2023-04-03T18:46:53.856Z,1.52
2023-04-03T18:49:21.093Z,1.08
2023-04-03T18:51:47.910Z,1.20
2023-04-03T18:54:15.734Z,4.65
2023-04-03T18:56:42.399Z,7.60
2023-04-03T18:59:09.055Z,17.17
2023-04-03T19:01:38.593Z,18.42
2023-04-03T19:04:05.802Z,9.15
2023-04-03T19:06:37.272Z,5.20
2023-04-03T19:09:06.630Z,2.45
2023-04-03T19:11:33.858Z,1.77
2023-04-03T19:16:31.867Z,0.82
2023-04-03T19:18:59.650Z,1.83
2023-04-03T19:21:28.470Z,1.38
2023-04-03T19:23:59.142Z,1.23
2023-04-03T19:26:28.769Z,1.35
2023-04-03T19:28:55.644Z,1.17
2023-04-03T19:31:22.919Z,2.10
2023-04-03T19:33:50.294Z,1.40
2023-04-03T19:36:18.425Z,1.92
2023-04-03T19:38:45.488Z,1.42
2023-04-03T19:41:22.962Z,1.63
2023-04-03T19:43:52.732Z,1.40
2023-04-03T19:46:22.771Z,1.60
2023-04-03T19:48:49.449Z,1.10
2023-04-03T19:51:16.700Z,1.05
2023-04-03T19:53:44.840Z,1.40
2023-04-03T19:56:11.489Z,1.50
2023-04-03T19:58:39.478Z,1.35
2023-04-03T20:01:06.241Z,1.85
2023-04-03T20:03:34.284Z,1.17
2023-04-03T20:06:02.760Z,1.85
2023-04-03T20:08:31.387Z,3.20
2023-04-03T20:10:58.080Z,1.95
2023-04-03T20:13:24.718Z,0.93
2023-04-03T20:15:53.694Z,3.30
2023-04-03T20:18:21.346Z,3.03
2023-04-03T20:20:59.636Z,2.85
2023-04-03T20:23:27.366Z,2.67
2023-04-03T20:26:08.724Z,2.55
2023-04-03T20:28:38.004Z,2.03
2023-04-03T20:31:09.110Z,2.35
2023-04-03T20:33:37.222Z,0.63
2023-04-03T20:36:05.598Z,1.02
2023-04-03T20:38:33.427Z,1.45
2023-04-03T20:41:00.439Z,0.80
2023-04-03T20:43:28.718Z,1.30
2023-04-03T20:45:55.764Z,1.50
2023-04-03T20:48:22.697Z,1.33
2023-04-03T20:50:49.503Z,1.00
2023-04-03T20:53:18.138Z,1.45
2023-04-03T20:56:01.171Z,0.65
2023-04-03T20:58:31.786Z,1.05
2023-04-03T21:00:59.441Z,1.00
2023-04-03T21:03:29.407Z,1.50
2023-04-03T21:06:02.419Z,1.02
2023-04-03T21:09:07.986Z,1.02
2023-04-03T21:12:12.171Z,0.80
2023-04-03T21:15:16.458Z,1.10
2023-04-03T21:18:34.427Z,0.70
2023-04-03T21:21:04.913Z,1.48
2023-04-03T21:23:32.902Z,1.00
2023-04-03T21:26:00.359Z,1.00
2023-04-03T21:28:27.340Z,0.93
2023-04-03T21:30:54.201Z,1.08
2023-04-03T21:33:22.354Z,0.98
2023-04-03T21:35:50.258Z,0.50
2023-04-03T21:38:17.267Z,0.95
2023-04-03T21:40:47.818Z,0.38
2023-04-03T21:43:15.783Z,0.45
2023-04-03T21:45:44.069Z,0.95
2023-04-03T21:48:10.687Z,0.85
2023-04-03T21:50:39.009Z,0.60
2023-04-03T21:53:06.131Z,0.95
2023-04-03T21:55:32.794Z,0.40
2023-04-03T21:57:59.490Z,1.00
2023-04-03T22:00:26.246Z,1.02
2023-04-03T22:03:00.805Z,1.00
2023-04-03T22:05:36.003Z,0.70
2023-04-03T22:08:02.683Z,1.15
2023-04-03T22:10:29.598Z,1.10
2023-04-03T22:12:56.373Z,0.90
2023-04-03T22:15:23.160Z,1.20
2023-04-03T22:17:49.872Z,1.00
2023-04-03T22:20:16.848Z,0.77
2023-04-03T22:22:43.585Z,0.73
2023-04-03T22:25:10.617Z,0.93
2023-04-03T22:27:37.481Z,0.55
2023-04-03T22:30:04.426Z,0.80
2023-04-03T22:32:31.176Z,1.17
2023-04-03T22:35:00.161Z,0.90
2023-04-03T22:37:27.548Z,0.80
2023-04-03T22:39:54.202Z,0.88
2023-04-03T22:42:21.209Z,0.88
2023-04-03T22:44:47.872Z,0.70
2023-04-03T22:47:16.001Z,1.00
2023-04-03T22:49:42.862Z,2.17
2023-04-03T22:52:09.513Z,0.75
2023-04-03T22:54:36.194Z,0.77
2023-04-03T22:57:03.205Z,1.23
2023-04-03T22:59:29.942Z,1.13
2023-04-03T23:01:57.722Z,1.17
2023-04-03T23:04:24.906Z,0.82
2023-04-03T23:06:51.709Z,1.15
2023-04-03T23:09:18.337Z,1.23
2023-04-03T23:11:44.945Z,0.57
2023-04-03T23:14:11.589Z,0.88
2023-04-03T23:16:38.252Z,0.60
2023-04-03T23:19:04.886Z,0.50
2023-04-03T23:21:31.505Z,1.02
2023-04-03T23:23:58.277Z,1.20
2023-04-03T23:26:25.537Z,0.95
2023-04-03T23:28:52.199Z,0.82
2023-04-03T23:31:18.785Z,1.40
2023-04-03T23:33:46.809Z,0.70
2023-04-03T23:36:13.583Z,0.88
2023-04-03T23:38:41.418Z,1.35
2023-04-03T23:41:08.095Z,1.02
2023-04-03T23:43:35.595Z,1.35
2023-04-03T23:46:02.783Z,1.30
2023-04-03T23:48:29.547Z,1.10
2023-04-03T23:50:56.351Z,0.47
2023-04-03T23:53:23.018Z,1.48
2023-04-03T23:55:50.313Z,1.33
2023-04-03T23:58:16.967Z,0.75
